sensor_id;sensor_type;location;lat;lon;timestamp;pressure;altitude;pressure_sealevel;temperature;humidity
70217;BME280;65567;55.684;37.570;2023-05-22T00:00:03;99827.47;;;16.01;51.26
70217;BME280;65567;55.684;37.570;2023-05-22T00:02:33;99825.28;;;16.08;50.93
70217;BME280;65567;55.684;37.570;2023-05-22T00:05:04;99834.72;;;16.12;50.85
70217;BME280;65567;55.684;37.570;2023-05-22T00:07:31;99834.50;;;16.15;51.05
70217;BME280;65567;55.684;37.570;2023-05-22T00:09:56;99836.69;;;16.08;51.60
70217;BME280;65567;55.684;37.570;2023-05-22T00:12:22;99843.97;;;16.05;51.62
70217;BME280;65567;55.684;37.570;2023-05-22T00:14:48;99855.44;;;15.91;51.57
70217;BME280;65567;55.684;37.570;2023-05-22T00:17:14;99858.13;;;15.75;52.07
70217;BME280;65567;55.684;37.570;2023-05-22T00:19:40;99853.41;;;15.65;52.56
70217;BME280;65567;55.684;37.570;2023-05-22T00:22:08;99843.72;;;15.66;52.62
70217;BME280;65567;55.684;37.570;2023-05-22T00:24:33;99839.94;;;15.70;52.51
70217;BME280;65567;55.684;37.570;2023-05-22T00:26:59;99833.78;;;15.69;52.69
70217;BME280;65567;55.684;37.570;2023-05-22T00:29:25;99833.91;;;15.82;52.29
70217;BME280;65567;55.684;37.570;2023-05-22T00:31:51;99842.94;;;15.93;52.21
70217;BME280;65567;55.684;37.570;2023-05-22T00:34:16;99841.72;;;15.98;52.06
70217;BME280;65567;55.684;37.570;2023-05-22T00:36:43;99850.38;;;16.00;52.02
70217;BME280;65567;55.684;37.570;2023-05-22T00:39:08;99845.97;;;16.01;52.08
70217;BME280;65567;55.684;37.570;2023-05-22T00:41:34;99841.53;;;16.01;51.89
70217;BME280;65567;55.684;37.570;2023-05-22T00:44:00;99835.41;;;16.01;52.08
70217;BME280;65567;55.684;37.570;2023-05-22T00:46:27;99840.75;;;15.99;52.15
70217;BME280;65567;55.684;37.570;2023-05-22T00:48:53;99836.34;;;16.00;52.40
70217;BME280;65567;55.684;37.570;2023-05-22T00:51:20;99839.72;;;16.02;52.41
70217;BME280;65567;55.684;37.570;2023-05-22T00:53:47;99836.25;;;16.01;52.18
70217;BME280;65567;55.684;37.570;2023-05-22T00:56:14;99838.88;;;16.01;52.47
70217;BME280;65567;55.684;37.570;2023-05-22T00:58:40;99838.03;;;16.01;52.62
70217;BME280;65567;55.684;37.570;2023-05-22T01:01:07;99834.63;;;15.99;52.48
70217;BME280;65567;55.684;37.570;2023-05-22T01:03:41;99831.22;;;15.97;52.25
70217;BME280;65567;55.684;37.570;2023-05-22T01:06:10;99829.75;;;15.93;52.44
70217;BME280;65567;55.684;37.570;2023-05-22T01:08:36;99829.00;;;15.91;52.62
70217;BME280;65567;55.684;37.570;2023-05-22T01:11:35;99833.63;;;15.87;52.72
70217;BME280;65567;55.684;37.570;2023-05-22T01:19:53;99821.44;;;15.70;53.42
70217;BME280;65567;55.684;37.570;2023-05-22T01:31:15;99839.75;;;15.59;53.65
70217;BME280;65567;55.684;37.570;2023-05-22T01:33:47;99842.41;;;15.59;53.47
70217;BME280;65567;55.684;37.570;2023-05-22T01:36:17;99838.91;;;15.58;53.51
70217;BME280;65567;55.684;37.570;2023-05-22T01:38:45;99830.13;;;15.58;53.73
70217;BME280;65567;55.684;37.570;2023-05-22T01:41:12;99831.81;;;15.59;53.76
70217;BME280;65567;55.684;37.570;2023-05-22T01:43:38;99837.09;;;15.59;53.89
70217;BME280;65567;55.684;37.570;2023-05-22T01:46:04;99830.88;;;15.60;53.71
70217;BME280;65567;55.684;37.570;2023-05-22T01:48:31;99838.63;;;15.63;54.26
70217;BME280;65567;55.684;37.570;2023-05-22T01:51:01;99835.97;;;15.63;54.18
70217;BME280;65567;55.684;37.570;2023-05-22T01:53:39;99834.00;;;15.66;54.20
70217;BME280;65567;55.684;37.570;2023-05-22T01:56:14;99831.16;;;15.69;53.90
70217;BME280;65567;55.684;37.570;2023-05-22T02:01:18;99830.09;;;15.72;53.98
70217;BME280;65567;55.684;37.570;2023-05-22T02:03:46;99831.72;;;15.75;54.09
70217;BME280;65567;55.684;37.570;2023-05-22T02:06:17;99829.72;;;15.78;54.06
70217;BME280;65567;55.684;37.570;2023-05-22T02:08:44;99828.72;;;15.81;54.06
70217;BME280;65567;55.684;37.570;2023-05-22T02:11:11;99836.53;;;15.82;53.76
70217;BME280;65567;55.684;37.570;2023-05-22T02:13:38;99832.03;;;15.84;53.70
70217;BME280;65567;55.684;37.570;2023-05-22T02:16:05;99833.53;;;15.89;53.77
70217;BME280;65567;55.684;37.570;2023-05-22T02:21:53;99840.41;;;15.91;53.16
70217;BME280;65567;55.684;37.570;2023-05-22T02:24:19;99851.56;;;15.82;53.28
70217;BME280;65567;55.684;37.570;2023-05-22T02:26:45;99852.00;;;15.74;53.54
70217;BME280;65567;55.684;37.570;2023-05-22T02:29:12;99853.41;;;15.65;53.49
70217;BME280;65567;55.684;37.570;2023-05-22T02:31:37;99848.25;;;15.64;53.61
70217;BME280;65567;55.684;37.570;2023-05-22T02:34:03;99849.47;;;15.73;53.43
70217;BME280;65567;55.684;37.570;2023-05-22T02:36:32;99850.13;;;15.62;53.75
70217;BME280;65567;55.684;37.570;2023-05-22T02:38:58;99856.38;;;15.46;54.02
70217;BME280;65567;55.684;37.570;2023-05-22T02:41:24;99860.22;;;15.41;54.18
70217;BME280;65567;55.684;37.570;2023-05-22T02:43:50;99862.00;;;15.40;54.72
70217;BME280;65567;55.684;37.570;2023-05-22T02:46:15;99869.63;;;15.30;54.90
70217;BME280;65567;55.684;37.570;2023-05-22T02:48:41;99867.44;;;15.23;54.98
70217;BME280;65567;55.684;37.570;2023-05-22T02:51:07;99865.94;;;15.18;54.42
70217;BME280;65567;55.684;37.570;2023-05-22T02:53:33;99863.66;;;15.12;54.87
70217;BME280;65567;55.684;37.570;2023-05-22T02:55:59;99870.28;;;15.34;54.53
70217;BME280;65567;55.684;37.570;2023-05-22T02:58:25;99873.41;;;15.55;54.07
70217;BME280;65567;55.684;37.570;2023-05-22T03:00:51;99868.22;;;15.68;53.69
70217;BME280;65567;55.684;37.570;2023-05-22T03:03:18;99884.38;;;15.78;53.21
70217;BME280;65567;55.684;37.570;2023-05-22T03:05:43;99872.75;;;15.80;53.00
70217;BME280;65567;55.684;37.570;2023-05-22T03:08:14;99871.75;;;15.83;52.27
70217;BME280;65567;55.684;37.570;2023-05-22T03:10:40;99872.00;;;15.93;51.66
70217;BME280;65567;55.684;37.570;2023-05-22T03:13:06;99873.13;;;16.03;51.05
70217;BME280;65567;55.684;37.570;2023-05-22T03:15:32;99866.16;;;16.02;51.08
70217;BME280;65567;55.684;37.570;2023-05-22T03:17:57;99866.03;;;16.18;50.76
70217;BME280;65567;55.684;37.570;2023-05-22T03:20:23;99857.84;;;16.35;50.44
70217;BME280;65567;55.684;37.570;2023-05-22T03:22:49;99851.34;;;16.41;49.67
70217;BME280;65567;55.684;37.570;2023-05-22T03:25:15;99859.28;;;16.27;49.68
70217;BME280;65567;55.684;37.570;2023-05-22T03:27:40;99855.97;;;16.10;50.15
70217;BME280;65567;55.684;37.570;2023-05-22T03:30:07;99851.97;;;16.17;49.93
70217;BME280;65567;55.684;37.570;2023-05-22T03:32:32;99856.66;;;16.27;49.59
70217;BME280;65567;55.684;37.570;2023-05-22T03:35:02;99858.91;;;16.33;49.87
70217;BME280;65567;55.684;37.570;2023-05-22T03:37:29;99861.31;;;16.50;50.01
70217;BME280;65567;55.684;37.570;2023-05-22T03:39:55;99866.44;;;16.66;48.96
70217;BME280;65567;55.684;37.570;2023-05-22T03:42:20;99873.06;;;16.59;49.45
70217;BME280;65567;55.684;37.570;2023-05-22T03:44:46;99861.66;;;16.59;49.09
70217;BME280;65567;55.684;37.570;2023-05-22T03:47:13;99863.28;;;16.74;49.23
70217;BME280;65567;55.684;37.570;2023-05-22T03:49:39;99865.19;;;16.85;48.29
70217;BME280;65567;55.684;37.570;2023-05-22T03:52:04;99871.22;;;16.74;48.63
70217;BME280;65567;55.684;37.570;2023-05-22T03:54:30;99870.34;;;16.61;48.90
70217;BME280;65567;55.684;37.570;2023-05-22T03:56:56;99863.34;;;16.60;48.74
70217;BME280;65567;55.684;37.570;2023-05-22T03:59:22;99874.69;;;16.75;48.67
70217;BME280;65567;55.684;37.570;2023-05-22T04:01:48;99874.47;;;16.65;48.98
70217;BME280;65567;55.684;37.570;2023-05-22T04:04:14;99870.41;;;16.59;49.52
70217;BME280;65567;55.684;37.570;2023-05-22T04:06:40;99871.63;;;16.68;49.64
70217;BME280;65567;55.684;37.570;2023-05-22T04:09:10;99877.06;;;16.79;49.61
70217;BME280;65567;55.684;37.570;2023-05-22T04:11:38;99874.59;;;16.91;49.35
70217;BME280;65567;55.684;37.570;2023-05-22T04:14:05;99872.13;;;16.60;50.38
70217;BME280;65567;55.684;37.570;2023-05-22T04:16:31;99875.16;;;16.54;50.60
70217;BME280;65567;55.684;37.570;2023-05-22T04:18:57;99887.25;;;16.31;51.52
70217;BME280;65567;55.684;37.570;2023-05-22T04:21:26;99880.53;;;16.25;51.77
70217;BME280;65567;55.684;37.570;2023-05-22T04:23:52;99880.84;;;16.21;52.08
70217;BME280;65567;55.684;37.570;2023-05-22T04:26:18;99883.63;;;16.32;51.83
70217;BME280;65567;55.684;37.570;2023-05-22T04:28:45;99874.28;;;16.41;52.02
70217;BME280;65567;55.684;37.570;2023-05-22T04:31:12;99883.03;;;16.56;51.92
70217;BME280;65567;55.684;37.570;2023-05-22T04:33:38;99875.97;;;16.69;51.65
70217;BME280;65567;55.684;37.570;2023-05-22T04:36:05;99878.00;;;16.78;51.75
70217;BME280;65567;55.684;37.570;2023-05-22T04:38:32;99883.84;;;16.83;52.19
70217;BME280;65567;55.684;37.570;2023-05-22T04:41:02;99880.94;;;16.74;52.92
70217;BME280;65567;55.684;37.570;2023-05-22T04:43:28;99882.53;;;16.76;53.67
70217;BME280;65567;55.684;37.570;2023-05-22T04:45:54;99889.41;;;16.66;54.69
70217;BME280;65567;55.684;37.570;2023-05-22T04:48:21;99878.41;;;16.45;56.23
70217;BME280;65567;55.684;37.570;2023-05-22T04:50:50;99877.72;;;16.28;57.06
70217;BME280;65567;55.684;37.570;2023-05-22T04:53:16;99876.78;;;16.15;57.67
70217;BME280;65567;55.684;37.570;2023-05-22T04:55:42;99880.19;;;16.17;57.80
70217;BME280;65567;55.684;37.570;2023-05-22T04:58:08;99884.44;;;16.19;57.68
70217;BME280;65567;55.684;37.570;2023-05-22T05:00:34;99877.00;;;16.12;58.08
70217;BME280;65567;55.684;37.570;2023-05-22T05:03:00;99883.53;;;16.06;58.69
70217;BME280;65567;55.684;37.570;2023-05-22T05:05:26;99876.88;;;16.13;58.82
70217;BME280;65567;55.684;37.570;2023-05-22T05:07:51;99885.94;;;16.24;59.13
70217;BME280;65567;55.684;37.570;2023-05-22T05:10:17;99892.34;;;16.34;59.09
70217;BME280;65567;55.684;37.570;2023-05-22T05:12:43;99891.94;;;16.40;58.79
70217;BME280;65567;55.684;37.570;2023-05-22T05:15:09;99894.09;;;16.48;58.74
70217;BME280;65567;55.684;37.570;2023-05-22T05:17:35;99887.34;;;16.57;58.71
70217;BME280;65567;55.684;37.570;2023-05-22T05:20:01;99884.50;;;16.32;59.30
70217;BME280;65567;55.684;37.570;2023-05-22T05:22:28;99875.19;;;16.12;60.05
70217;BME280;65567;55.684;37.570;2023-05-22T05:24:54;99867.84;;;16.03;60.77
70217;BME280;65567;55.684;37.570;2023-05-22T05:27:20;99874.91;;;16.17;61.17
70217;BME280;65567;55.684;37.570;2023-05-22T05:29:46;99884.69;;;16.29;61.01
70217;BME280;65567;55.684;37.570;2023-05-22T05:32:11;99888.09;;;16.31;60.65
70217;BME280;65567;55.684;37.570;2023-05-22T05:34:38;99892.19;;;16.08;61.49
70217;BME280;65567;55.684;37.570;2023-05-22T05:37:04;99898.41;;;15.78;62.38
70217;BME280;65567;55.684;37.570;2023-05-22T05:39:30;99905.97;;;15.56;62.92
70217;BME280;65567;55.684;37.570;2023-05-22T05:41:55;99901.50;;;15.42;63.85
70217;BME280;65567;55.684;37.570;2023-05-22T05:44:21;99906.69;;;15.43;64.11
70217;BME280;65567;55.684;37.570;2023-05-22T05:46:47;99914.78;;;15.26;64.88
70217;BME280;65567;55.684;37.570;2023-05-22T05:49:13;99918.91;;;15.15;65.47
70217;BME280;65567;55.684;37.570;2023-05-22T05:51:38;99918.03;;;15.15;65.44
70217;BME280;65567;55.684;37.570;2023-05-22T05:54:04;99926.38;;;15.23;65.72
70217;BME280;65567;55.684;37.570;2023-05-22T05:56:30;99933.53;;;15.21;66.21
70217;BME280;65567;55.684;37.570;2023-05-22T05:58:56;99923.44;;;15.28;66.07
70217;BME280;65567;55.684;37.570;2023-05-22T06:01:23;99912.41;;;15.21;66.65
70217;BME280;65567;55.684;37.570;2023-05-22T06:03:49;99918.78;;;15.02;67.35
70217;BME280;65567;55.684;37.570;2023-05-22T06:06:15;99925.47;;;15.08;67.37
70217;BME280;65567;55.684;37.570;2023-05-22T06:08:42;99921.72;;;15.12;67.47
70217;BME280;65567;55.684;37.570;2023-05-22T06:11:08;99922.75;;;15.10;67.74
70217;BME280;65567;55.684;37.570;2023-05-22T06:13:34;99923.69;;;15.09;68.24
70217;BME280;65567;55.684;37.570;2023-05-22T06:16:00;99924.06;;;15.02;68.61
70217;BME280;65567;55.684;37.570;2023-05-22T06:18:26;99912.13;;;14.95;68.92
70217;BME280;65567;55.684;37.570;2023-05-22T06:20:52;99913.94;;;14.95;69.05
70217;BME280;65567;55.684;37.570;2023-05-22T06:23:18;99914.34;;;15.03;69.13
70217;BME280;65567;55.684;37.570;2023-05-22T06:25:44;99914.44;;;15.01;69.34
70217;BME280;65567;55.684;37.570;2023-05-22T06:28:10;99916.22;;;15.01;69.45
70217;BME280;65567;55.684;37.570;2023-05-22T06:30:36;99911.00;;;15.15;69.49
70217;BME280;65567;55.684;37.570;2023-05-22T06:33:02;99908.94;;;15.20;69.52
70217;BME280;65567;55.684;37.570;2023-05-22T06:35:29;99902.03;;;15.18;69.84
70217;BME280;65567;55.684;37.570;2023-05-22T06:37:56;99913.97;;;15.09;70.33
70217;BME280;65567;55.684;37.570;2023-05-22T06:40:23;99909.50;;;14.95;70.87
70217;BME280;65567;55.684;37.570;2023-05-22T06:42:49;99893.28;;;14.87;71.09
70217;BME280;65567;55.684;37.570;2023-05-22T06:45:15;99882.50;;;15.06;70.86
70217;BME280;65567;55.684;37.570;2023-05-22T06:47:44;99893.25;;;15.17;70.71
70217;BME280;65567;55.684;37.570;2023-05-22T06:50:10;99899.50;;;15.16;71.14
70217;BME280;65567;55.684;37.570;2023-05-22T06:52:36;99923.28;;;15.31;70.98
70217;BME280;65567;55.684;37.570;2023-05-22T06:55:05;99929.31;;;15.33;71.21
70217;BME280;65567;55.684;37.570;2023-05-22T06:57:31;99905.75;;;15.44;70.94
70217;BME280;65567;55.684;37.570;2023-05-22T06:59:57;99891.16;;;15.53;71.01
70217;BME280;65567;55.684;37.570;2023-05-22T07:02:23;99899.34;;;15.63;70.96
70217;BME280;65567;55.684;37.570;2023-05-22T07:04:49;99910.69;;;15.65;70.67
70217;BME280;65567;55.684;37.570;2023-05-22T07:07:16;99890.50;;;15.78;70.62
70217;BME280;65567;55.684;37.570;2023-05-22T07:09:42;99895.97;;;15.61;70.98
70217;BME280;65567;55.684;37.570;2023-05-22T07:12:08;99880.59;;;15.53;71.41
70217;BME280;65567;55.684;37.570;2023-05-22T07:14:34;99890.50;;;15.64;71.23
70217;BME280;65567;55.684;37.570;2023-05-22T07:16:59;99888.06;;;15.90;71.11
70217;BME280;65567;55.684;37.570;2023-05-22T07:19:25;99902.19;;;16.03;70.30
70217;BME280;65567;55.684;37.570;2023-05-22T07:21:51;99919.53;;;16.22;70.00
70217;BME280;65567;55.684;37.570;2023-05-22T07:24:17;99911.75;;;16.47;69.36
70217;BME280;65567;55.684;37.570;2023-05-22T07:26:43;99902.41;;;16.69;68.79
70217;BME280;65567;55.684;37.570;2023-05-22T07:29:12;99885.53;;;16.84;68.23
70217;BME280;65567;55.684;37.570;2023-05-22T07:31:38;99888.59;;;16.78;68.38
70217;BME280;65567;55.684;37.570;2023-05-22T07:34:04;99899.59;;;16.85;68.37
70217;BME280;65567;55.684;37.570;2023-05-22T07:36:30;99904.13;;;16.70;68.92
70217;BME280;65567;55.684;37.570;2023-05-22T07:38:59;99898.44;;;16.89;69.18
70217;BME280;65567;55.684;37.570;2023-05-22T07:41:25;99900.63;;;17.10;69.14
70217;BME280;65567;55.684;37.570;2023-05-22T07:43:54;99907.34;;;17.41;68.38
70217;BME280;65567;55.684;37.570;2023-05-22T07:46:20;99907.28;;;17.56;67.88
70217;BME280;65567;55.684;37.570;2023-05-22T07:48:45;99917.84;;;17.68;66.83
70217;BME280;65567;55.684;37.570;2023-05-22T07:51:11;99912.22;;;17.47;66.75
70217;BME280;65567;55.684;37.570;2023-05-22T07:53:39;99903.03;;;17.40;67.14
70217;BME280;65567;55.684;37.570;2023-05-22T07:56:05;99895.59;;;17.32;67.52
70217;BME280;65567;55.684;37.570;2023-05-22T07:58:31;99895.28;;;17.63;67.40
70217;BME280;65567;55.684;37.570;2023-05-22T08:00:58;99898.34;;;17.82;67.10
70217;BME280;65567;55.684;37.570;2023-05-22T08:03:24;99911.88;;;17.91;66.85
70217;BME280;65567;55.684;37.570;2023-05-22T08:05:50;99928.16;;;17.99;66.14
70217;BME280;65567;55.684;37.570;2023-05-22T08:08:18;99912.09;;;18.13;65.75
70217;BME280;65567;55.684;37.570;2023-05-22T08:10:44;99916.47;;;18.39;65.26
70217;BME280;65567;55.684;37.570;2023-05-22T08:13:10;99922.13;;;18.58;64.76
70217;BME280;65567;55.684;37.570;2023-05-22T08:15:37;99923.09;;;18.81;64.63
70217;BME280;65567;55.684;37.570;2023-05-22T08:18:03;99926.59;;;19.06;63.91
70217;BME280;65567;55.684;37.570;2023-05-22T08:20:28;99916.72;;;19.08;63.57
70217;BME280;65567;55.684;37.570;2023-05-22T08:22:54;99920.44;;;18.81;63.49
70217;BME280;65567;55.684;37.570;2023-05-22T08:25:21;99920.16;;;18.73;63.93
70217;BME280;65567;55.684;37.570;2023-05-22T08:27:47;99915.84;;;18.96;63.79
70217;BME280;65567;55.684;37.570;2023-05-22T08:30:13;99911.94;;;19.25;63.31
70217;BME280;65567;55.684;37.570;2023-05-22T08:32:38;99908.84;;;19.54;62.56
70217;BME280;65567;55.684;37.570;2023-05-22T08:35:04;99900.88;;;19.76;61.97
70217;BME280;65567;55.684;37.570;2023-05-22T08:37:30;99902.38;;;20.03;61.32
70217;BME280;65567;55.684;37.570;2023-05-22T08:39:56;99902.84;;;20.20;60.54
70217;BME280;65567;55.684;37.570;2023-05-22T08:42:23;99900.00;;;20.33;60.41
70217;BME280;65567;55.684;37.570;2023-05-22T08:44:49;99900.94;;;20.43;59.98
70217;BME280;65567;55.684;37.570;2023-05-22T08:47:15;99891.88;;;20.45;60.05
70217;BME280;65567;55.684;37.570;2023-05-22T08:49:45;99888.44;;;20.55;59.92
70217;BME280;65567;55.684;37.570;2023-05-22T08:52:21;99883.09;;;20.66;60.00
70217;BME280;65567;55.684;37.570;2023-05-22T08:54:54;99884.78;;;20.78;59.44
70217;BME280;65567;55.684;37.570;2023-05-22T08:57:22;99874.06;;;20.90;59.69
70217;BME280;65567;55.684;37.570;2023-05-22T08:59:48;99878.56;;;21.10;58.91
70217;BME280;65567;55.684;37.570;2023-05-22T09:02:15;99869.84;;;21.29;58.63
70217;BME280;65567;55.684;37.570;2023-05-22T09:04:41;99871.84;;;21.58;58.19
70217;BME280;65567;55.684;37.570;2023-05-22T09:07:08;99867.53;;;21.98;57.30
70217;BME280;65567;55.684;37.570;2023-05-22T09:09:37;99872.97;;;22.37;56.44
70217;BME280;65567;55.684;37.570;2023-05-22T09:14:40;99888.28;;;22.94;54.67
70217;BME280;65567;55.684;37.570;2023-05-22T09:17:07;99884.34;;;23.08;54.11
70217;BME280;65567;55.684;37.570;2023-05-22T09:19:34;99882.53;;;23.28;53.20
70217;BME280;65567;55.684;37.570;2023-05-22T09:22:04;99878.00;;;23.38;52.37
70217;BME280;65567;55.684;37.570;2023-05-22T09:24:30;99882.81;;;23.35;53.58
70217;BME280;65567;55.684;37.570;2023-05-22T09:27:02;99879.97;;;23.46;52.50
70217;BME280;65567;55.684;37.570;2023-05-22T09:29:30;99879.59;;;23.59;52.13
70217;BME280;65567;55.684;37.570;2023-05-22T09:31:58;99879.09;;;23.83;51.21
70217;BME280;65567;55.684;37.570;2023-05-22T09:34:28;99883.16;;;23.97;50.57
70217;BME280;65567;55.684;37.570;2023-05-22T09:37:01;99868.06;;;24.24;50.15
70217;BME280;65567;55.684;37.570;2023-05-22T09:39:41;99866.09;;;24.26;49.02
70217;BME280;65567;55.684;37.570;2023-05-22T09:42:08;99859.44;;;24.30;49.64
70217;BME280;65567;55.684;37.570;2023-05-22T09:44:36;99862.28;;;24.47;49.64
70217;BME280;65567;55.684;37.570;2023-05-22T09:47:03;99863.16;;;24.65;48.71
70217;BME280;65567;55.684;37.570;2023-05-22T09:49:30;99863.59;;;24.79;48.74
70217;BME280;65567;55.684;37.570;2023-05-22T09:51:56;99866.47;;;25.03;48.17
70217;BME280;65567;55.684;37.570;2023-05-22T09:54:24;99861.19;;;25.12;47.28
70217;BME280;65567;55.684;37.570;2023-05-22T09:56:54;99861.97;;;25.04;47.53
70217;BME280;65567;55.684;37.570;2023-05-22T09:59:26;99860.88;;;24.97;47.15
70217;BME280;65567;55.684;37.570;2023-05-22T10:01:54;99867.97;;;25.06;47.23
70217;BME280;65567;55.684;37.570;2023-05-22T10:04:22;99858.75;;;25.27;46.57
70217;BME280;65567;55.684;37.570;2023-05-22T10:06:53;99854.03;;;25.20;45.24
70217;BME280;65567;55.684;37.570;2023-05-22T10:09:23;99854.19;;;24.74;43.98
70217;BME280;65567;55.684;37.570;2023-05-22T10:11:52;99860.47;;;23.54;44.84
70217;BME280;65567;55.684;37.570;2023-05-22T10:14:19;99859.88;;;23.03;45.77
70217;BME280;65567;55.684;37.570;2023-05-22T10:16:45;99843.19;;;22.52;47.84
70217;BME280;65567;55.684;37.570;2023-05-22T10:19:12;99851.75;;;22.36;47.77
70217;BME280;65567;55.684;37.570;2023-05-22T10:21:40;99854.06;;;22.00;48.76
70217;BME280;65567;55.684;37.570;2023-05-22T10:24:06;99864.34;;;21.73;49.18
70217;BME280;65567;55.684;37.570;2023-05-22T10:26:32;99856.72;;;21.59;49.70
70217;BME280;65567;55.684;37.570;2023-05-22T10:29:11;99861.69;;;21.52;50.31
70217;BME280;65567;55.684;37.570;2023-05-22T10:32:03;99853.22;;;21.37;50.39
70217;BME280;65567;55.684;37.570;2023-05-22T10:37:42;99850.13;;;21.63;50.47
70217;BME280;65567;55.684;37.570;2023-05-22T10:40:12;99855.16;;;21.35;50.98
70217;BME280;65567;55.684;37.570;2023-05-22T10:42:38;99853.53;;;21.44;51.37
70217;BME280;65567;55.684;37.570;2023-05-22T10:45:08;99853.56;;;21.23;51.37
70217;BME280;65567;55.684;37.570;2023-05-22T10:47:35;99847.94;;;21.26;51.42
70217;BME280;65567;55.684;37.570;2023-05-22T10:50:11;99847.06;;;21.46;51.64
70217;BME280;65567;55.684;37.570;2023-05-22T10:52:38;99848.25;;;21.54;51.05
70217;BME280;65567;55.684;37.570;2023-05-22T10:55:08;99844.94;;;21.61;51.50
70217;BME280;65567;55.684;37.570;2023-05-22T10:57:38;99843.03;;;21.73;51.83
70217;BME280;65567;55.684;37.570;2023-05-22T11:00:11;99842.53;;;21.99;51.02
70217;BME280;65567;55.684;37.570;2023-05-22T11:02:42;99837.31;;;21.98;50.58
70217;BME280;65567;55.684;37.570;2023-05-22T11:07:43;99843.56;;;21.67;51.26
70217;BME280;65567;55.684;37.570;2023-05-22T11:10:09;99831.25;;;21.76;50.65
70217;BME280;65567;55.684;37.570;2023-05-22T11:12:35;99828.50;;;21.56;51.64
70217;BME280;65567;55.684;37.570;2023-05-22T11:15:06;99830.31;;;21.56;52.22
70217;BME280;65567;55.684;37.570;2023-05-22T11:17:39;99830.81;;;21.71;51.49
70217;BME280;65567;55.684;37.570;2023-05-22T11:20:23;99833.78;;;21.77;51.52
70217;BME280;65567;55.684;37.570;2023-05-22T11:22:55;99831.78;;;21.79;51.63
70217;BME280;65567;55.684;37.570;2023-05-22T11:25:21;99823.91;;;21.68;52.01
70217;BME280;65567;55.684;37.570;2023-05-22T11:27:48;99826.69;;;21.57;52.01
70217;BME280;65567;55.684;37.570;2023-05-22T11:30:14;99827.69;;;21.66;51.90
70217;BME280;65567;55.684;37.570;2023-05-22T11:32:43;99819.31;;;21.80;51.92
70217;BME280;65567;55.684;37.570;2023-05-22T11:35:19;99819.75;;;21.95;51.67
70217;BME280;65567;55.684;37.570;2023-05-22T11:37:46;99813.56;;;21.85;51.45
70217;BME280;65567;55.684;37.570;2023-05-22T11:40:14;99820.69;;;21.74;51.89
70217;BME280;65567;55.684;37.570;2023-05-22T11:42:40;99821.25;;;21.68;52.55
70217;BME280;65567;55.684;37.570;2023-05-22T11:45:06;99812.75;;;21.94;52.41
70217;BME280;65567;55.684;37.570;2023-05-22T11:47:33;99809.44;;;22.21;51.46
70217;BME280;65567;55.684;37.570;2023-05-22T11:49:59;99817.00;;;22.26;51.53
70217;BME280;65567;55.684;37.570;2023-05-22T11:52:34;99817.78;;;21.87;51.58
70217;BME280;65567;55.684;37.570;2023-05-22T11:55:00;99807.91;;;21.68;52.74
70217;BME280;65567;55.684;37.570;2023-05-22T11:57:26;99809.91;;;21.76;52.68
70217;BME280;65567;55.684;37.570;2023-05-22T11:59:52;99801.66;;;21.89;52.62
70217;BME280;65567;55.684;37.570;2023-05-22T12:02:18;99797.84;;;21.82;52.66
70217;BME280;65567;55.684;37.570;2023-05-22T12:04:45;99799.00;;;21.89;53.02
70217;BME280;65567;55.684;37.570;2023-05-22T12:07:11;99793.38;;;21.92;52.88
70217;BME280;65567;55.684;37.570;2023-05-22T12:09:41;99791.78;;;21.70;53.54
70217;BME280;65567;55.684;37.570;2023-05-22T12:12:10;99785.66;;;21.99;53.06
70217;BME280;65567;55.684;37.570;2023-05-22T12:14:36;99781.91;;;22.11;52.53
70217;BME280;65567;55.684;37.570;2023-05-22T12:17:03;99782.31;;;22.16;52.54
70217;BME280;65567;55.684;37.570;2023-05-22T12:19:29;99781.06;;;22.30;51.85
70217;BME280;65567;55.684;37.570;2023-05-22T12:21:55;99779.66;;;22.16;52.02
70217;BME280;65567;55.684;37.570;2023-05-22T12:24:21;99781.66;;;22.43;51.79
70217;BME280;65567;55.684;37.570;2023-05-22T12:26:53;99773.63;;;22.53;51.42
70217;BME280;65567;55.684;37.570;2023-05-22T12:29:21;99771.81;;;22.54;52.01
70217;BME280;65567;55.684;37.570;2023-05-22T12:31:48;99776.53;;;22.80;51.01
70217;BME280;65567;55.684;37.570;2023-05-22T12:34:14;99767.84;;;22.68;51.18
70217;BME280;65567;55.684;37.570;2023-05-22T12:36:42;99762.78;;;22.74;50.86
70217;BME280;65567;55.684;37.570;2023-05-22T12:39:09;99762.31;;;22.89;49.91
70217;BME280;65567;55.684;37.570;2023-05-22T12:41:36;99755.41;;;23.06;49.26
70217;BME280;65567;55.684;37.570;2023-05-22T12:44:02;99749.56;;;23.30;49.00
70217;BME280;65567;55.684;37.570;2023-05-22T12:46:32;99750.06;;;23.43;48.92
70217;BME280;65567;55.684;37.570;2023-05-22T12:48:59;99749.03;;;23.54;48.72
70217;BME280;65567;55.684;37.570;2023-05-22T12:51:29;99737.88;;;23.31;47.68
70217;BME280;65567;55.684;37.570;2023-05-22T12:53:59;99738.13;;;23.38;47.82
70217;BME280;65567;55.684;37.570;2023-05-22T12:56:25;99739.41;;;23.62;47.79
70217;BME280;65567;55.684;37.570;2023-05-22T12:58:51;99733.81;;;23.55;47.36
70217;BME280;65567;55.684;37.570;2023-05-22T13:01:18;99737.78;;;23.51;47.00
70217;BME280;65567;55.684;37.570;2023-05-22T13:03:44;99744.47;;;23.65;47.10
70217;BME280;65567;55.684;37.570;2023-05-22T13:06:11;99734.47;;;23.85;46.70
70217;BME280;65567;55.684;37.570;2023-05-22T13:08:37;99731.41;;;23.80;46.18
70217;BME280;65567;55.684;37.570;2023-05-22T13:11:03;99732.22;;;23.90;45.86
70217;BME280;65567;55.684;37.570;2023-05-22T13:13:29;99725.34;;;23.59;46.51
70217;BME280;65567;55.684;37.570;2023-05-22T13:15:55;99719.31;;;23.75;46.52
70217;BME280;65567;55.684;37.570;2023-05-22T13:18:21;99713.91;;;23.67;45.84